sensor_id;sensor_type;location;lat;lon;timestamp;pressure;altitude;pressure_sealevel;temperature;humidity
60852;BME280;48553;50.766;2.900;2023-05-02T00:01:41;101427.31;;;13.79;73.23
60852;BME280;48553;50.766;2.900;2023-05-02T00:04:41;101436.72;;;13.78;73.24
60852;BME280;48553;50.766;2.900;2023-05-02T00:07:42;101438.31;;;13.79;73.35
60852;BME280;48553;50.766;2.900;2023-05-02T00:10:43;101431.88;;;13.75;73.25
60852;BME280;48553;50.766;2.900;2023-05-02T00:13:43;101436.38;;;13.80;73.20
60852;BME280;48553;50.766;2.900;2023-05-02T00:16:44;101435.31;;;13.72;73.39
60852;BME280;48553;50.766;2.900;2023-05-02T00:19:45;101434.16;;;13.73;73.36
60852;BME280;48553;50.766;2.900;2023-05-02T00:22:46;101434.16;;;13.73;73.45
60852;BME280;48553;50.766;2.900;2023-05-02T00:25:46;101436.44;;;13.71;73.47
60852;BME280;48553;50.766;2.900;2023-05-02T00:28:46;101445.41;;;13.68;73.78
60852;BME280;48553;50.766;2.900;2023-05-02T00:31:47;101442.66;;;13.68;73.75
60852;BME280;48553;50.766;2.900;2023-05-02T00:34:47;101439.56;;;13.70;73.83
60852;BME280;48553;50.766;2.900;2023-05-02T00:37:48;101448.16;;;13.68;73.76
60852;BME280;48553;50.766;2.900;2023-05-02T00:40:49;101448.03;;;13.65;73.86
60852;BME280;48553;50.766;2.900;2023-05-02T00:43:52;101440.59;;;13.65;74.07
60852;BME280;48553;50.766;2.900;2023-05-02T00:46:57;101442.06;;;13.63;74.15
60852;BME280;48553;50.766;2.900;2023-05-02T00:49:59;101442.06;;;13.63;74.12
60852;BME280;48553;50.766;2.900;2023-05-02T00:53:00;101445.16;;;13.61;74.03
60852;BME280;48553;50.766;2.900;2023-05-02T00:56:03;101453.41;;;13.61;74.08
60852;BME280;48553;50.766;2.900;2023-05-02T00:59:07;101455.38;;;13.61;74.03
60852;BME280;48553;50.766;2.900;2023-05-02T01:05:14;101454.56;;;13.60;74.17
60852;BME280;48553;50.766;2.900;2023-05-02T01:08:26;101450.88;;;13.56;74.39
60852;BME280;48553;50.766;2.900;2023-05-02T01:11:56;101460.28;;;13.55;74.47
60852;BME280;48553;50.766;2.900;2023-05-02T01:14:54;101457.84;;;13.53;74.42
60852;BME280;48553;50.766;2.900;2023-05-02T01:17:56;101458.69;;;13.54;74.46
60852;BME280;48553;50.766;2.900;2023-05-02T01:21:03;101454.28;;;13.53;74.49
60852;BME280;48553;50.766;2.900;2023-05-02T01:24:21;101465.19;;;13.49;74.50
60852;BME280;48553;50.766;2.900;2023-05-02T01:27:35;101451.91;;;13.51;74.43
60852;BME280;48553;50.766;2.900;2023-05-02T01:30:41;101455.00;;;13.50;74.61
60852;BME280;48553;50.766;2.900;2023-05-02T01:33:43;101449.81;;;13.48;74.57
60852;BME280;48553;50.766;2.900;2023-05-02T01:36:46;101453.34;;;13.49;74.63
60852;BME280;48553;50.766;2.900;2023-05-02T01:39:49;101450.16;;;13.47;74.62
60852;BME280;48553;50.766;2.900;2023-05-02T01:42:51;101450.03;;;13.43;74.85
60852;BME280;48553;50.766;2.900;2023-05-02T01:45:53;101452.78;;;13.43;74.91
60852;BME280;48553;50.766;2.900;2023-05-02T01:48:56;101451.19;;;13.42;74.97
60852;BME280;48553;50.766;2.900;2023-05-02T01:52:01;101457.97;;;13.45;74.77
60852;BME280;48553;50.766;2.900;2023-05-02T01:55:07;101455.06;;;13.41;74.94
60852;BME280;48553;50.766;2.900;2023-05-02T01:58:10;101461.03;;;13.43;74.68
60852;BME280;48553;50.766;2.900;2023-05-02T02:01:12;101471.59;;;13.41;74.92
60852;BME280;48553;50.766;2.900;2023-05-02T02:04:15;101481.66;;;13.37;75.13
60852;BME280;48553;50.766;2.900;2023-05-02T02:07:16;101482.91;;;13.40;75.02
60852;BME280;48553;50.766;2.900;2023-05-02T02:10:17;101493.50;;;13.38;75.16
60852;BME280;48553;50.766;2.900;2023-05-02T02:13:25;101496.91;;;13.34;75.30
60852;BME280;48553;50.766;2.900;2023-05-02T02:16:30;101507.59;;;13.36;75.21
60852;BME280;48553;50.766;2.900;2023-05-02T02:19:31;101503.69;;;13.37;75.11
60852;BME280;48553;50.766;2.900;2023-05-02T02:22:36;101511.81;;;13.33;75.33
60852;BME280;48553;50.766;2.900;2023-05-02T02:25:38;101508.13;;;13.29;75.32
60852;BME280;48553;50.766;2.900;2023-05-02T02:28:39;101509.88;;;13.34;75.38
60852;BME280;48553;50.766;2.900;2023-05-02T02:31:40;101522.22;;;13.28;75.61
60852;BME280;48553;50.766;2.900;2023-05-02T02:34:40;101518.34;;;13.29;75.30
60852;BME280;48553;50.766;2.900;2023-05-02T02:38:22;101519.78;;;13.26;75.62
60852;BME280;48553;50.766;2.900;2023-05-02T02:41:32;101520.44;;;13.23;75.70
60852;BME280;48553;50.766;2.900;2023-05-02T02:48:06;101519.97;;;13.21;75.53
60852;BME280;48553;50.766;2.900;2023-05-02T02:51:13;101526.94;;;13.19;75.64
60852;BME280;48553;50.766;2.900;2023-05-02T02:54:21;101528.75;;;13.14;75.52
60852;BME280;48553;50.766;2.900;2023-05-02T02:57:32;101532.97;;;13.12;75.57
60852;BME280;48553;50.766;2.900;2023-05-02T03:00:37;101540.09;;;13.13;75.48
60852;BME280;48553;50.766;2.900;2023-05-02T03:03:38;101533.66;;;13.09;75.40
60852;BME280;48553;50.766;2.900;2023-05-02T03:06:39;101537.09;;;13.06;75.41
60852;BME280;48553;50.766;2.900;2023-05-02T03:09:44;101533.03;;;13.03;75.61
60852;BME280;48553;50.766;2.900;2023-05-02T03:12:45;101537.41;;;13.04;75.33
60852;BME280;48553;50.766;2.900;2023-05-02T03:18:58;101528.72;;;12.93;75.60
60852;BME280;48553;50.766;2.900;2023-05-02T03:21:58;101516.13;;;12.92;75.62
60852;BME280;48553;50.766;2.900;2023-05-02T03:24:59;101524.22;;;12.89;75.70
60852;BME280;48553;50.766;2.900;2023-05-02T03:27:59;101530.50;;;12.89;75.56
60852;BME280;48553;50.766;2.900;2023-05-02T03:31:00;101529.03;;;12.92;75.45
60852;BME280;48553;50.766;2.900;2023-05-02T03:34:01;101533.75;;;12.91;75.43
60852;BME280;48553;50.766;2.900;2023-05-02T03:37:01;101524.41;;;12.84;75.43
60852;BME280;48553;50.766;2.900;2023-05-02T03:40:02;101531.03;;;12.83;75.61
60852;BME280;48553;50.766;2.900;2023-05-02T03:43:02;101530.56;;;12.81;75.75
60852;BME280;48553;50.766;2.900;2023-05-02T03:46:08;101534.47;;;12.80;75.68
60852;BME280;48553;50.766;2.900;2023-05-02T03:49:08;101533.66;;;12.79;75.55
60852;BME280;48553;50.766;2.900;2023-05-02T03:52:09;101532.88;;;12.79;75.65
60852;BME280;48553;50.766;2.900;2023-05-02T03:55:09;101539.97;;;12.80;75.59
60852;BME280;48553;50.766;2.900;2023-05-02T03:58:10;101561.50;;;12.78;75.79
60852;BME280;48553;50.766;2.900;2023-05-02T04:01:15;101565.03;;;12.78;75.63
60852;BME280;48553;50.766;2.900;2023-05-02T04:04:15;101572.38;;;12.74;75.76
60852;BME280;48553;50.766;2.900;2023-05-02T04:07:16;101571.53;;;12.73;75.78
60852;BME280;48553;50.766;2.900;2023-05-02T04:10:18;101574.47;;;12.68;75.70
60852;BME280;48553;50.766;2.900;2023-05-02T04:13:18;101577.53;;;12.67;75.81
60852;BME280;48553;50.766;2.900;2023-05-02T04:16:19;101568.38;;;12.63;75.86
60852;BME280;48553;50.766;2.900;2023-05-02T04:19:19;101575.31;;;12.60;75.92
60852;BME280;48553;50.766;2.900;2023-05-02T04:22:20;101574.97;;;12.62;75.91
60852;BME280;48553;50.766;2.900;2023-05-02T04:25:20;101591.81;;;12.60;75.89
60852;BME280;48553;50.766;2.900;2023-05-02T04:28:21;101588.59;;;12.58;75.67
60852;BME280;48553;50.766;2.900;2023-05-02T04:31:22;101591.19;;;12.54;75.78
60852;BME280;48553;50.766;2.900;2023-05-02T04:34:22;101607.22;;;12.52;75.86
60852;BME280;48553;50.766;2.900;2023-05-02T04:37:23;101607.88;;;12.49;75.89
60852;BME280;48553;50.766;2.900;2023-05-02T04:40:24;101614.50;;;12.48;76.08
60852;BME280;48553;50.766;2.900;2023-05-02T04:43:24;101616.91;;;12.50;76.43
60852;BME280;48553;50.766;2.900;2023-05-02T04:46:25;101627.91;;;12.50;76.33
60852;BME280;48553;50.766;2.900;2023-05-02T04:49:26;101633.25;;;12.46;76.65
60852;BME280;48553;50.766;2.900;2023-05-02T04:52:26;101633.72;;;12.48;76.56
60852;BME280;48553;50.766;2.900;2023-05-02T04:55:27;101636.97;;;12.50;76.63
60852;BME280;48553;50.766;2.900;2023-05-02T04:58:27;101629.69;;;12.46;76.88
60852;BME280;48553;50.766;2.900;2023-05-02T05:01:28;101634.09;;;12.47;77.13
60852;BME280;48553;50.766;2.900;2023-05-02T05:04:29;101648.94;;;12.46;77.14
60852;BME280;48553;50.766;2.900;2023-05-02T05:07:29;101647.00;;;12.46;77.41
60852;BME280;48553;50.766;2.900;2023-05-02T05:10:30;101642.34;;;12.47;77.28
60852;BME280;48553;50.766;2.900;2023-05-02T05:13:30;101652.00;;;12.44;77.38
60852;BME280;48553;50.766;2.900;2023-05-02T05:16:31;101655.59;;;12.45;77.31
60852;BME280;48553;50.766;2.900;2023-05-02T05:19:32;101658.00;;;12.46;77.27
60852;BME280;48553;50.766;2.900;2023-05-02T05:22:37;101671.75;;;12.46;77.08
60852;BME280;48553;50.766;2.900;2023-05-02T05:25:38;101679.50;;;12.44;77.15
60852;BME280;48553;50.766;2.900;2023-05-02T05:28:39;101666.75;;;12.40;77.10
60852;BME280;48553;50.766;2.900;2023-05-02T05:31:40;101677.91;;;12.43;77.19
60852;BME280;48553;50.766;2.900;2023-05-02T05:34:40;101688.59;;;12.45;76.96
60852;BME280;48553;50.766;2.900;2023-05-02T05:37:41;101697.16;;;12.43;77.15
60852;BME280;48553;50.766;2.900;2023-05-02T05:40:42;101700.56;;;12.40;77.26
60852;BME280;48553;50.766;2.900;2023-05-02T05:43:43;101710.09;;;12.43;77.18
60852;BME280;48553;50.766;2.900;2023-05-02T05:46:43;101706.38;;;12.39;77.33
60852;BME280;48553;50.766;2.900;2023-05-02T05:49:43;101709.75;;;12.44;77.29
60852;BME280;48553;50.766;2.900;2023-05-02T05:52:44;101720.28;;;12.42;77.26
60852;BME280;48553;50.766;2.900;2023-05-02T05:55:44;101718.66;;;12.41;77.30
60852;BME280;48553;50.766;2.900;2023-05-02T05:58:45;101729.66;;;12.41;77.44
60852;BME280;48553;50.766;2.900;2023-05-02T06:01:46;101730.47;;;12.42;77.46
60852;BME280;48553;50.766;2.900;2023-05-02T06:04:46;101731.28;;;12.42;77.59
60852;BME280;48553;50.766;2.900;2023-05-02T06:07:47;101745.50;;;12.44;77.72
60852;BME280;48553;50.766;2.900;2023-05-02T06:10:47;101755.69;;;12.44;77.72
60852;BME280;48553;50.766;2.900;2023-05-02T06:13:47;101744.69;;;12.44;77.73
60852;BME280;48553;50.766;2.900;2023-05-02T06:16:48;101741.63;;;12.45;77.91
60852;BME280;48553;50.766;2.900;2023-05-02T06:19:48;101762.34;;;12.51;77.69
60852;BME280;48553;50.766;2.900;2023-05-02T06:22:49;101757.16;;;12.50;77.81
60852;BME280;48553;50.766;2.900;2023-05-02T06:25:49;101769.91;;;12.46;78.00
60852;BME280;48553;50.766;2.900;2023-05-02T06:28:50;101768.94;;;12.50;77.88
60852;BME280;48553;50.766;2.900;2023-05-02T06:31:54;101768.63;;;12.52;77.87
60852;BME280;48553;50.766;2.900;2023-05-02T06:34:54;101770.72;;;12.55;77.72
60852;BME280;48553;50.766;2.900;2023-05-02T06:37:55;101780.94;;;12.54;77.90
60852;BME280;48553;50.766;2.900;2023-05-02T06:40:55;101788.03;;;12.56;77.85
60852;BME280;48553;50.766;2.900;2023-05-02T06:43:56;101789.66;;;12.57;77.87
60852;BME280;48553;50.766;2.900;2023-05-02T06:46:56;101791.63;;;12.56;77.95
60852;BME280;48553;50.766;2.900;2023-05-02T06:49:57;101795.66;;;12.59;77.83
60852;BME280;48553;50.766;2.900;2023-05-02T06:52:57;101793.72;;;12.59;77.60
60852;BME280;48553;50.766;2.900;2023-05-02T06:55:58;101793.72;;;12.59;77.73
60852;BME280;48553;50.766;2.900;2023-05-02T06:58:59;101804.06;;;12.62;77.65
60852;BME280;48553;50.766;2.900;2023-05-02T07:01:59;101802.75;;;12.60;77.73
60852;BME280;48553;50.766;2.900;2023-05-02T07:05:00;101807.47;;;12.59;78.05
60852;BME280;48553;50.766;2.900;2023-05-02T07:08:00;101821.84;;;12.65;77.73
60852;BME280;48553;50.766;2.900;2023-05-02T07:11:01;101835.59;;;12.65;77.86
60852;BME280;48553;50.766;2.900;2023-05-02T07:14:02;101833.00;;;12.68;77.78
60852;BME280;48553;50.766;2.900;2023-05-02T07:17:02;101833.00;;;12.68;77.90
60852;BME280;48553;50.766;2.900;2023-05-02T07:20:03;101839.81;;;12.71;77.83
60852;BME280;48553;50.766;2.900;2023-05-02T07:23:03;101831.72;;;12.74;77.83
60852;BME280;48553;50.766;2.900;2023-05-02T07:26:04;101827.66;;;12.81;77.73
60852;BME280;48553;50.766;2.900;2023-05-02T07:29:05;101830.41;;;12.89;77.38
60852;BME280;48553;50.766;2.900;2023-05-02T07:32:05;101840.31;;;12.90;77.36
60852;BME280;48553;50.766;2.900;2023-05-02T07:35:06;101842.72;;;12.92;77.16
60852;BME280;48553;50.766;2.900;2023-05-02T07:38:07;101844.84;;;12.95;77.10
60852;BME280;48553;50.766;2.900;2023-05-02T07:41:08;101842.72;;;12.92;77.25
60852;BME280;48553;50.766;2.900;2023-05-02T07:44:08;101841.28;;;12.94;77.22
60852;BME280;48553;50.766;2.900;2023-05-02T07:47:09;101850.16;;;12.91;77.13
60852;BME280;48553;50.766;2.900;2023-05-02T07:50:09;101855.84;;;12.95;76.97
60852;BME280;48553;50.766;2.900;2023-05-02T07:53:10;101853.56;;;12.97;77.11
60852;BME280;48553;50.766;2.900;2023-05-02T07:56:11;101853.72;;;13.01;76.68
60852;BME280;48553;50.766;2.900;2023-05-02T07:59:12;101861.16;;;13.00;76.80
60852;BME280;48553;50.766;2.900;2023-05-02T08:02:12;101862.31;;;12.99;76.69
60852;BME280;48553;50.766;2.900;2023-05-02T08:05:13;101858.59;;;13.04;76.33
60852;BME280;48553;50.766;2.900;2023-05-02T08:08:14;101860.50;;;13.03;76.27
60852;BME280;48553;50.766;2.900;2023-05-02T08:11:14;101859.72;;;13.03;76.32
60852;BME280;48553;50.766;2.900;2023-05-02T08:14:15;101865.53;;;13.10;75.75
60852;BME280;48553;50.766;2.900;2023-05-02T08:17:15;101868.28;;;13.10;75.70
60852;BME280;48553;50.766;2.900;2023-05-02T08:20:16;101872.50;;;13.16;75.44
60852;BME280;48553;50.766;2.900;2023-05-02T08:23:16;101873.78;;;13.27;74.87
60852;BME280;48553;50.766;2.900;2023-05-02T08:26:17;101878.81;;;13.34;74.70
60852;BME280;48553;50.766;2.900;2023-05-02T08:29:18;101873.63;;;13.41;74.66
60852;BME280;48553;50.766;2.900;2023-05-02T08:32:18;101877.97;;;13.51;74.82
60852;BME280;48553;50.766;2.900;2023-05-02T08:35:19;101882.13;;;13.66;74.14
60852;BME280;48553;50.766;2.900;2023-05-02T08:38:19;101886.00;;;13.73;73.97
60852;BME280;48553;50.766;2.900;2023-05-02T08:41:21;101886.97;;;13.77;74.04
60852;BME280;48553;50.766;2.900;2023-05-02T08:44:21;101895.03;;;13.83;73.82
60852;BME280;48553;50.766;2.900;2023-05-02T08:47:22;101891.78;;;13.89;73.67
60852;BME280;48553;50.766;2.900;2023-05-02T08:50:25;101892.91;;;13.97;73.52
60852;BME280;48553;50.766;2.900;2023-05-02T08:53:27;101903.53;;;14.07;73.19
60852;BME280;48553;50.766;2.900;2023-05-02T08:56:28;101903.31;;;14.21;72.92
60852;BME280;48553;50.766;2.900;2023-05-02T08:59:29;101902.16;;;14.31;73.11
60852;BME280;48553;50.766;2.900;2023-05-02T09:02:44;101897.88;;;14.42;73.04
60852;BME280;48553;50.766;2.900;2023-05-02T09:05:52;101900.22;;;14.52;72.71
60852;BME280;48553;50.766;2.900;2023-05-02T09:08:58;101904.50;;;14.71;72.58
60852;BME280;48553;50.766;2.900;2023-05-02T09:11:59;101901.34;;;14.81;72.42
60852;BME280;48553;50.766;2.900;2023-05-02T09:15:14;101906.19;;;14.84;72.27
60852;BME280;48553;50.766;2.900;2023-05-02T09:18:21;101903.91;;;14.86;72.16
60852;BME280;48553;50.766;2.900;2023-05-02T09:21:24;101895.22;;;14.96;71.97
60852;BME280;48553;50.766;2.900;2023-05-02T09:24:24;101897.63;;;14.98;71.84
60852;BME280;48553;50.766;2.900;2023-05-02T09:27:26;101907.34;;;15.04;71.22
60852;BME280;48553;50.766;2.900;2023-05-02T09:30:27;101908.94;;;15.26;71.16
60852;BME280;48553;50.766;2.900;2023-05-02T09:33:27;101901.63;;;15.42;71.12
60852;BME280;48553;50.766;2.900;2023-05-02T09:36:38;101911.53;;;15.43;71.38
60852;BME280;48553;50.766;2.900;2023-05-02T09:39:39;101928.72;;;15.49;71.39
60852;BME280;48553;50.766;2.900;2023-05-02T09:42:40;101930.44;;;15.54;71.16
60852;BME280;48553;50.766;2.900;2023-05-02T09:45:40;101923.34;;;15.65;70.79
60852;BME280;48553;50.766;2.900;2023-05-02T09:48:57;101922.69;;;15.80;71.24
60852;BME280;48553;50.766;2.900;2023-05-02T09:52:09;101920.44;;;15.95;70.95
60852;BME280;48553;50.766;2.900;2023-05-02T09:55:19;101930.09;;;16.01;70.65
60852;BME280;48553;50.766;2.900;2023-05-02T09:58:22;101929.19;;;16.09;70.11
60852;BME280;48553;50.766;2.900;2023-05-02T10:01:23;101934.97;;;16.28;70.23
60852;BME280;48553;50.766;2.900;2023-05-02T10:04:24;101936.66;;;16.58;69.95
60852;BME280;48553;50.766;2.900;2023-05-02T10:07:25;101937.25;;;16.63;69.04
60852;BME280;48553;50.766;2.900;2023-05-02T10:10:26;101939.09;;;16.72;69.01
60852;BME280;48553;50.766;2.900;2023-05-02T10:13:27;101935.84;;;16.94;69.42
60852;BME280;48553;50.766;2.900;2023-05-02T10:16:33;101936.59;;;17.07;69.18
60852;BME280;48553;50.766;2.900;2023-05-02T10:19:41;101937.06;;;17.09;68.66
60852;BME280;48553;50.766;2.900;2023-05-02T10:22:44;101933.34;;;17.17;68.75
60852;BME280;48553;50.766;2.900;2023-05-02T10:25:47;101934.00;;;17.26;68.96
60852;BME280;48553;50.766;2.900;2023-05-02T10:28:51;101928.41;;;17.39;68.06
60852;BME280;48553;50.766;2.900;2023-05-02T10:31:52;101932.66;;;17.64;67.54
60852;BME280;48553;50.766;2.900;2023-05-02T10:34:56;101936.63;;;17.79;66.68
60852;BME280;48553;50.766;2.900;2023-05-02T10:37:57;101935.31;;;17.89;66.88
60852;BME280;48553;50.766;2.900;2023-05-02T10:41:04;101948.03;;;18.06;66.88
60852;BME280;48553;50.766;2.900;2023-05-02T10:44:06;101941.66;;;18.37;65.41
60852;BME280;48553;50.766;2.900;2023-05-02T10:47:24;101947.91;;;18.50;65.55
60852;BME280;48553;50.766;2.900;2023-05-02T10:50:41;101948.47;;;18.75;64.93
60852;BME280;48553;50.766;2.900;2023-05-02T10:53:42;101935.50;;;18.79;65.38
60852;BME280;48553;50.766;2.900;2023-05-02T10:57:03;101940.66;;;18.96;65.11
60852;BME280;48553;50.766;2.900;2023-05-02T11:00:20;101935.97;;;19.20;64.20
60852;BME280;48553;50.766;2.900;2023-05-02T11:04:00;101936.56;;;19.29;64.34
60852;BME280;48553;50.766;2.900;2023-05-02T11:13:49;101946.13;;;19.71;63.36
60852;BME280;48553;50.766;2.900;2023-05-02T11:26:20;101948.78;;;20.33;61.55
60852;BME280;48553;50.766;2.900;2023-05-02T11:29:51;101948.47;;;20.38;62.00
60852;BME280;48553;50.766;2.900;2023-05-02T11:35:52;101953.69;;;20.66;60.88
60852;BME280;48553;50.766;2.900;2023-05-02T11:38:53;101949.84;;;20.78;60.53
60852;BME280;48553;50.766;2.900;2023-05-02T11:41:54;101964.28;;;20.83;59.66
60852;BME280;48553;50.766;2.900;2023-05-02T11:44:59;101957.22;;;20.90;58.96
60852;BME280;48553;50.766;2.900;2023-05-02T11:48:00;101958.25;;;21.08;58.69
60852;BME280;48553;50.766;2.900;2023-05-02T11:51:00;101961.84;;;21.09;59.18
60852;BME280;48553;50.766;2.900;2023-05-02T11:54:06;101961.47;;;21.10;58.66
60852;BME280;48553;50.766;2.900;2023-05-02T11:57:07;101962.91;;;21.00;58.02
60852;BME280;48553;50.766;2.900;2023-05-02T12:00:08;101964.09;;;20.69;59.29
60852;BME280;48553;50.766;2.900;2023-05-02T12:03:21;101967.94;;;20.88;57.89
60852;BME280;48553;50.766;2.900;2023-05-02T12:06:21;101958.47;;;20.96;57.56
60852;BME280;48553;50.766;2.900;2023-05-02T12:09:22;101957.53;;;21.15;57.16
60852;BME280;48553;50.766;2.900;2023-05-02T12:12:23;101962.53;;;21.02;57.15
60852;BME280;48553;50.766;2.900;2023-05-02T12:15:23;101969.25;;;20.71;59.11
60852;BME280;48553;50.766;2.900;2023-05-02T12:18:25;101954.19;;;20.75;58.53
60852;BME280;48553;50.766;2.900;2023-05-02T12:21:29;101951.91;;;21.11;56.43
60852;BME280;48553;50.766;2.900;2023-05-02T12:24:32;101957.19;;;21.20;56.51
60852;BME280;48553;50.766;2.900;2023-05-02T12:27:33;101958.41;;;21.22;56.88
60852;BME280;48553;50.766;2.900;2023-05-02T12:30:35;101961.69;;;21.28;56.71
60852;BME280;48553;50.766;2.900;2023-05-02T12:33:41;101964.97;;;21.03;57.95
60852;BME280;48553;50.766;2.900;2023-05-02T12:36:43;101970.63;;;20.80;58.24
60852;BME280;48553;50.766;2.900;2023-05-02T12:39:44;101973.59;;;20.68;58.68
60852;BME280;48553;50.766;2.900;2023-05-02T12:42:58;101975.75;;;20.78;58.98
60852;BME280;48553;50.766;2.900;2023-05-02T12:46:09;101972.19;;;21.08;57.55
60852;BME280;48553;50.766;2.900;2023-05-02T12:49:10;101978.97;;;21.11;56.49
60852;BME280;48553;50.766;2.900;2023-05-02T12:52:11;101984.38;;;20.96;58.05
60852;BME280;48553;50.766;2.900;2023-05-02T12:55:19;101979.97;;;20.95;58.04
60852;BME280;48553;50.766;2.900;2023-05-02T12:58:19;101978.00;;;21.26;55.60
60852;BME280;48553;50.766;2.900;2023-05-02T13:01:24;101987.88;;;21.20;56.84
60852;BME280;48553;50.766;2.900;2023-05-02T13:04:39;101973.88;;;21.16;56.00
60852;BME280;48553;50.766;2.900;2023-05-02T13:07:40;101981.31;;;21.39;55.17
60852;BME280;48553;50.766;2.900;2023-05-02T13:10:41;101976.28;;;21.48;55.18
60852;BME280;48553;50.766;2.900;2023-05-02T13:13:41;101980.44;;;21.31;55.79
60852;BME280;48553;50.766;2.900;2023-05-02T13:16:42;101975.19;;;21.26;56.54
60852;BME280;48553;50.766;2.900;2023-05-02T13:19:42;101978.06;;;21.33;55.39
60852;BME280;48553;50.766;2.900;2023-05-02T13:22:42;101976.38;;;21.25;55.84
60852;BME280;48553;50.766;2.900;2023-05-02T13:25:43;101970.56;;;21.37;55.77
60852;BME280;48553;50.766;2.900;2023-05-02T13:28:43;101966.31;;;21.47;54.18
60852;BME280;48553;50.766;2.900;2023-05-02T13:31:44;101971.53;;;21.48;54.40
60852;BME280;48553;50.766;2.900;2023-05-02T13:34:44;101975.59;;;21.58;53.42
60852;BME280;48553;50.766;2.900;2023-05-02T13:37:45;101974.38;;;21.56;54.55
60852;BME280;48553;50.766;2.900;2023-05-02T13:40:45;101980.41;;;21.61;54.08
60852;BME280;48553;50.766;2.900;2023-05-02T13:43:46;101973.59;;;21.55;53.74
60852;BME280;48553;50.766;2.900;2023-05-02T13:46:46;101970.03;;;21.58;53.87
60852;BME280;48553;50.766;2.900;2023-05-02T13:49:47;101968.75;;;21.52;54.46
60852;BME280;48553;50.766;2.900;2023-05-02T13:52:47;101977.19;;;21.59;53.53
60852;BME280;48553;50.766;2.900;2023-05-02T13:55:48;101979.63;;;21.61;53.97
60852;BME280;48553;50.766;2.900;2023-05-02T13:58:48;101979.97;;;21.59;54.32
60852;BME280;48553;50.766;2.900;2023-05-02T14:01:48;101978.63;;;21.46;54.59
60852;BME280;48553;50.766;2.900;2023-05-02T14:04:49;101975.63;;;21.62;53.82
60852;BME280;48553;50.766;2.900;2023-05-02T14:07:49;101979.13;;;21.52;55.47
60852;BME280;48553;50.766;2.900;2023-05-02T14:10:50;101969.16;;;21.51;54.38
60852;BME280;48553;50.766;2.900;2023-05-02T14:13:51;101962.50;;;21.62;54.36
60852;BME280;48553;50.766;2.900;2023-05-02T14:16:51;101969.59;;;21.56;54.73
60852;BME280;48553;50.766;2.900;2023-05-02T14:19:52;101966.88;;;21.60;54.19
60852;BME280;48553;50.766;2.900;2023-05-02T14:22:52;101971.53;;;21.48;55.30
60852;BME280;48553;50.766;2.900;2023-05-02T14:25:54;101969.88;;;21.44;55.26
60852;BME280;48553;50.766;2.900;2023-05-02T14:28:54;101966.75;;;21.53;54.00
60852;BME280;48553;50.766;2.900;2023-05-02T14:31:56;101963.22;;;21.56;54.27
60852;BME280;48553;50.766;2.900;2023-05-02T14:34:56;101967.59;;;21.57;54.04
60852;BME280;48553;50.766;2.900;2023-05-02T14:37:57;101969.44;;;21.42;55.17
60852;BME280;48553;50.766;2.900;2023-05-02T14:40:57;101964.50;;;21.32;55.68
60852;BME280;48553;50.766;2.900;2023-05-02T14:43:58;101966.88;;;21.30;55.65
60852;BME280;48553;50.766;2.900;2023-05-02T14:46:58;101966.00;;;21.25;55.45
60852;BME280;48553;50.766;2.900;2023-05-02T14:49:58;101963.19;;;21.22;55.07
60852;BME280;48553;50.766;2.900;2023-05-02T14:52:59;101965.78;;;21.38;54.06
60852;BME280;48553;50.766;2.900;2023-05-02T14:55:59;101979.50;;;21.20;55.47
60852;BME280;48553;50.766;2.900;2023-05-02T14:59:00;101985.34;;;21.11;55.86
60852;BME280;48553;50.766;2.900;2023-05-02T15:02:00;101985.41;;;21.15;54.74
60852;BME280;48553;50.766;2.900;2023-05-02T15:05:02;101982.06;;;21.02;55.70
60852;BME280;48553;50.766;2.900;2023-05-02T15:08:02;101973.59;;;20.95;55.31
60852;BME280;48553;50.766;2.900;2023-05-02T15:11:03;101976.00;;;20.96;55.28
60852;BME280;48553;50.766;2.900;2023-05-02T15:14:03;101972.31;;;20.89;54.21
60852;BME280;48553;50.766;2.900;2023-05-02T15:17:04;101981.34;;;20.78;55.32
60852;BME280;48553;50.766;2.900;2023-05-02T15:20:05;101973.28;;;20.73;55.03
60852;BME280;48553;50.766;2.900;2023-05-02T15:23:06;101965.69;;;20.70;55.27
60852;BME280;48553;50.766;2.900;2023-05-02T15:26:06;101969.53;;;20.62;55.80
60852;BME280;48553;50.766;2.900;2023-05-02T15:29:07;101964.28;;;20.57;55.38
60852;BME280;48553;50.766;2.900;2023-05-02T15:32:07;101972.44;;;20.46;54.90
60852;BME280;48553;50.766;2.900;2023-05-02T15:35:08;101968.38;;;20.40;54.90
60852;BME280;48553;50.766;2.900;2023-05-02T15:38:08;101969.41;;;20.28;55.07
60852;BME280;48553;50.766;2.900;2023-05-02T15:41:09;101979.28;;;20.26;54.66
60852;BME280;48553;50.766;2.900;2023-05-02T15:44:10;101968.84;;;20.19;55.24
60852;BME280;48553;50.766;2.900;2023-05-02T15:47:11;101965.56;;;20.13;54.54
60852;BME280;48553;50.766;2.900;2023-05-02T15:50:11;101977.00;;;20.08;54.95
60852;BME280;48553;50.766;2.900;2023-05-02T15:53:15;101974.16;;;20.05;54.45
60852;BME280;48553;50.766;2.900;2023-05-02T15:56:15;101972.03;;;19.98;55.18
60852;BME280;48553;50.766;2.900;2023-05-02T15:59:16;101983.06;;;19.91;55.15
60852;BME280;48553;50.766;2.900;2023-05-02T16:02:17;101981.03;;;19.88;55.96
60852;BME280;48553;50.766;2.900;2023-05-02T16:05:17;101986.16;;;19.86;55.35
60852;BME280;48553;50.766;2.900;2023-05-02T16:08:18;101984.47;;;19.81;55.39
60852;BME280;48553;50.766;2.900;2023-05-02T16:11:18;101984.97;;;19.67;56.15
60852;BME280;48553;50.766;2.900;2023-05-02T16:14:19;101981.19;;;19.56;55.70
60852;BME280;48553;50.766;2.900;2023-05-02T16:17:23;101975.50;;;19.49;55.98
60852;BME280;48553;50.766;2.900;2023-05-02T16:20:24;101985.28;;;19.43;55.27
60852;BME280;48553;50.766;2.900;2023-05-02T16:23:25;101980.81;;;19.38;55.21